»·PEaware :: AAL186 KSFO-KLAX

AAL186 :: KSFO-KLAX

FLIGHT INFORMATION

Flight Status: Arrived
Operator:
American Airlines
More flights by this operator :: More flights under this callsign
Pilot: Sergei F. (8485)
Aircraft: AIRBUS A320
(A320)
More flights by this aircraft type
Origin: KSFO San Francisco Intl
United States
Destination: KLAX Los Angeles Intl
United States
More flights between these airports :: More routes between these airports
Route: +WESLA3 EBAYE BURGL IRNMN1
File this flight plan on PilotEdge
Remarks:
Altitude:
(Current/Filed)
31,000ft
Speed:
(Current/Filed)
300kts
Departed: 04-May-18 05:37 PM
Arrived: 04-May-18 06:37 PM
Distance/Time
Traveled:
293nm/1:00
Distance/Time
To Go:
Arrived

Flight Plot

Page will automatically refresh every two minutes.

Flight plan parsing failed; only flown route is shown


Map Options




Map Legend


Flown Route
Filed Route
Departure Airport
Arrival Airport
Navaid (VOR, NDB)
Fix

Horizontal Profiles

Position Reports

Time Latitude Longitude Heading Altitude Ground
Speed
04-May-18 17:11 37.618314 -122.381986 139 18ft 0kts
04-May-18 17:12 37.618314 -122.381986 138 18ft 0kts
04-May-18 17:13 37.618314 -122.381986 138 18ft 0kts
04-May-18 17:14 37.618314 -122.381986 138 18ft 0kts
04-May-18 17:15 37.618314 -122.381986 138 18ft 0kts
04-May-18 17:16 37.618314 -122.381986 138 18ft 0kts
04-May-18 17:17 37.618314 -122.381986 138 18ft 0kts
04-May-18 17:18 37.618314 -122.381986 138 18ft 0kts
04-May-18 17:19 37.618314 -122.381986 138 18ft 0kts
04-May-18 17:20 37.618314 -122.381986 138 18ft 0kts
04-May-18 17:21 37.618314 -122.381986 138 18ft 0kts
04-May-18 17:22 37.618399 -122.382081 139 18ft 2kts
04-May-18 17:23 37.618664 -122.382433 91 18ft 2kts
04-May-18 17:24 37.618947 -122.382383 28 18ft 3kts
04-May-18 17:25 37.619011 -122.382340 28 18ft 0kts
04-May-18 17:26 37.619011 -122.382340 28 18ft 0kts
04-May-18 17:27 37.619011 -122.382340 28 18ft 0kts
04-May-18 17:28 37.619011 -122.382340 28 18ft 0kts
04-May-18 17:29 37.619011 -122.382340 28 18ft 0kts
04-May-18 17:30 37.619488 -122.381762 81 18ft 8kts
04-May-18 17:31 37.618163 -122.378277 111 18ft 14kts
04-May-18 17:32 37.616574 -122.373640 118 18ft 15kts
04-May-18 17:33 37.614455 -122.368914 133 18ft 16kts
04-May-18 17:34 37.612103 -122.364085 117 18ft 16kts
04-May-18 17:35 37.610471 -122.359943 89 18ft 10kts
04-May-18 17:36 37.612028 -122.359121 298 18ft 6kts
04-May-18 17:37 37.616654 -122.370182 296 36ft 139kts
04-May-18 17:38 37.635087 -122.411945 296 2600ft 166kts
04-May-18 17:39 37.659597 -122.468808 296 4857ft 219kts
04-May-18 17:40 37.646639 -122.534973 198 7485ft 249kts
04-May-18 17:41 37.581587 -122.515733 162 9892ft 282kts
04-May-18 17:42 37.505012 -122.481510 160 11617ft 333kts
04-May-18 17:43 37.438347 -122.405093 133 12474ft 385kts
04-May-18 17:44 37.372746 -122.315488 134 13834ft 402kts
04-May-18 17:45 37.298642 -122.214922 134 15360ft 414kts
04-May-18 17:46 37.222449 -122.111961 135 16730ft 426kts
04-May-18 17:47 37.150017 -122.014384 135 17962ft 434kts
04-May-18 17:48 37.075239 -121.913961 135 19118ft 441kts
04-May-18 17:49 36.996121 -121.808063 135 20166ft 450kts
04-May-18 17:50 36.914238 -121.698812 135 21135ft 459kts
04-May-18 17:51 36.836524 -121.595469 135 21954ft 467kts
04-May-18 17:52 36.759683 -121.493607 135 22707ft 475kts
04-May-18 17:53 36.673432 -121.379657 135 23372ft 485kts
04-May-18 17:54 36.596373 -121.278170 136 24008ft 489kts
04-May-18 17:55 36.506716 -121.160466 136 25094ft 487kts
04-May-18 17:56 36.416205 -121.039934 133 25204ft 481kts
04-May-18 17:57 36.330632 -120.916893 128 25166ft 484kts
04-May-18 17:58 36.243958 -120.792777 128 25173ft 486kts
04-May-18 17:59 36.166879 -120.682760 128 25177ft 486kts
04-May-18 18:00 36.090150 -120.573596 128 25171ft 485kts
04-May-18 18:01 36.008496 -120.457821 128 25163ft 485kts
04-May-18 18:02 35.924536 -120.339189 129 25161ft 484kts
04-May-18 18:03 35.840616 -120.239273 146 25163ft 491kts
04-May-18 18:04 35.731673 -120.157154 146 25167ft 490kts
04-May-18 18:05 35.623113 -120.075368 146 25152ft 489kts
04-May-18 18:06 35.509573 -119.989762 146 25148ft 489kts
04-May-18 18:07 35.395822 -119.904320 146 25196ft 488kts
04-May-18 18:08 35.282366 -119.817688 142 25186ft 486kts
04-May-18 18:09 35.177068 -119.719685 140 25191ft 484kts
04-May-18 18:10 35.072913 -119.622637 140 25151ft 485kts
04-May-18 18:11 34.967999 -119.525203 140 25160ft 473kts
04-May-18 18:12 34.874552 -119.439551 141 25174ft 423kts
04-May-18 18:13 34.782324 -119.357291 141 25041ft 420kts
04-May-18 18:14 34.706140 -119.289989 142 23865ft 401kts
04-May-18 18:15 34.618204 -119.213563 142 22024ft 391kts
04-May-18 18:16 34.532492 -119.139181 141 20193ft 379kts
04-May-18 18:17 34.450209 -119.066242 141 18402ft 368kts
04-May-18 18:18 34.369990 -118.996537 142 16650ft 356kts
04-May-18 18:19 34.293468 -118.928448 140 14955ft 344kts
04-May-18 18:20 34.220064 -118.861381 140 13495ft 325kts
04-May-18 18:21 34.154462 -118.799310 135 13084ft 296kts
04-May-18 18:22 34.094000 -118.733479 136 12016ft 294kts
04-May-18 18:23 34.036169 -118.668870 123 10655ft 284kts
04-May-18 18:24 34.022337 -118.587173 97 9517ft 269kts
04-May-18 18:25 34.014763 -118.505953 97 8071ft 268kts
04-May-18 18:25 34.013074 -118.439569 79 7281ft 283kts
04-May-18 18:26 34.026875 -118.359588 78 6700ft 255kts
04-May-18 18:27 34.033657 -118.294787 81 6181ft 237kts
04-May-18 18:28 34.040632 -118.226121 81 5631ft 217kts
04-May-18 18:29 34.034627 -118.165491 147 4245ft 205kts
04-May-18 18:30 33.995111 -118.183590 232 3121ft 168kts
04-May-18 18:32 33.967872 -118.236343 265 2763ft 157kts
04-May-18 18:33 33.964904 -118.283484 265 2098ft 143kts
04-May-18 18:33 33.960539 -118.321573 262 1360ft 140kts
04-May-18 18:34 33.955857 -118.366420 263 698ft 138kts
04-May-18 18:35 33.951151 -118.411364 262 115ft 125kts
04-May-18 18:36 33.948807 -118.426412 228 114ft 9kts
04-May-18 18:37 33.948578 -118.426709 225 114ft 0kts
04-May-18 18:38 33.947103 -118.427753 187 114ft 10kts
04-May-18 18:39 33.946404 -118.426500 83 114ft 11kts
04-May-18 18:40 33.946849 -118.422272 83 114ft 11kts
04-May-18 18:41 33.947208 -118.418688 83 114ft 13kts
04-May-18 18:42 33.947630 -118.414629 81 114ft 13kts
04-May-18 18:43 33.948096 -118.411346 82 114ft 10kts
04-May-18 18:44 33.947249 -118.409111 191 114ft 12kts
04-May-18 18:45 33.946342 -118.408386 90 114ft 2kts
04-May-18 18:46 33.946343 -118.408212 89 114ft 0kts

Navigation Log

Ident Type
Flight plan parsing failed, navigation log unavailable